createdAt,value
2023-02-14T00:00:58.844Z,38.20
2023-02-14T00:03:25.620Z,35.47
2023-02-14T00:05:52.672Z,37.13
2023-02-14T00:08:19.283Z,35.57
2023-02-14T00:10:46.392Z,36.77
2023-02-14T00:13:13.016Z,37.50
2023-02-14T00:15:39.629Z,38.07
2023-02-14T00:18:06.419Z,34.87
2023-02-14T00:20:33.078Z,36.73
2023-02-14T00:23:00.816Z,35.47
2023-02-14T00:25:27.534Z,34.73
2023-02-14T00:27:55.450Z,35.07
2023-02-14T00:30:22.242Z,36.37
2023-02-14T00:32:48.939Z,34.53
2023-02-14T00:35:15.646Z,35.37
2023-02-14T00:37:42.335Z,33.67
2023-02-14T00:40:09.367Z,34.27
2023-02-14T00:42:36.023Z,36.10
2023-02-14T00:45:02.641Z,36.23
2023-02-14T00:47:29.318Z,34.27
2023-02-14T00:49:56.042Z,38.03
2023-02-14T00:52:22.853Z,34.10
2023-02-14T00:54:49.501Z,34.20
2023-02-14T00:57:16.112Z,34.47
2023-02-14T00:59:42.713Z,33.10
2023-02-14T01:02:09.480Z,37.03
2023-02-14T01:04:36.239Z,33.33
2023-02-14T01:07:05.956Z,36.67
2023-02-14T01:09:32.669Z,34.30
2023-02-14T01:11:59.283Z,35.07
2023-02-14T01:14:25.937Z,31.90
2023-02-14T01:16:52.625Z,36.27
2023-02-14T01:19:19.251Z,33.97
2023-02-14T01:21:45.891Z,35.50
2023-02-14T01:24:13.121Z,35.63
2023-02-14T01:26:40.961Z,33.37
2023-02-14T01:29:08.052Z,38.27
2023-02-14T01:31:36.133Z,35.70
2023-02-14T01:34:03.172Z,31.53
2023-02-14T01:36:35.334Z,35.97
2023-02-14T01:39:05.600Z,35.70
2023-02-14T01:41:35.282Z,34.10
2023-02-14T01:44:36.540Z,34.57
2023-02-14T01:47:07.696Z,35.60
2023-02-14T01:49:39.425Z,34.60
2023-02-14T01:52:13.156Z,34.67
2023-02-14T01:54:46.250Z,34.10
2023-02-14T01:57:16.899Z,35.80
2023-02-14T01:59:48.312Z,35.70
2023-02-14T02:02:14.946Z,35.80
2023-02-14T02:04:46.206Z,35.97
2023-02-14T02:07:19.017Z,36.10
2023-02-14T02:10:00.604Z,37.83
2023-02-14T02:12:29.244Z,37.43
2023-02-14T02:14:58.757Z,37.00
2023-02-14T02:18:02.262Z,37.33
2023-02-14T02:20:41.668Z,36.77
2023-02-14T02:23:24.237Z,38.33
2023-02-14T02:26:28.264Z,36.37
2023-02-14T02:29:19.105Z,36.43
2023-02-14T02:32:07.036Z,38.57
2023-02-14T02:35:05.468Z,37.70
2023-02-14T02:37:34.900Z,35.97
2023-02-14T02:40:10.190Z,34.23
2023-02-14T02:42:51.904Z,33.93
2023-02-14T02:45:27.572Z,31.93
2023-02-14T02:48:02.060Z,35.03
2023-02-14T02:51:01.355Z,34.30
2023-02-14T02:53:53.510Z,34.93
2023-02-14T02:56:47.449Z,37.10
2023-02-14T02:59:19.763Z,35.37
2023-02-14T03:02:10.177Z,37.30
2023-02-14T03:04:55.838Z,40.77
2023-02-14T03:07:39.003Z,40.23
2023-02-14T03:10:24.249Z,37.30
2023-02-14T03:12:53.644Z,40.37
2023-02-14T03:15:35.918Z,38.70
2023-02-14T03:18:15.569Z,41.10
2023-02-14T03:21:32.865Z,44.43
2023-02-14T03:24:17.336Z,38.80
2023-02-14T03:26:51.871Z,39.43
2023-02-14T03:29:43.672Z,41.43
2023-02-14T03:32:27.775Z,42.53
2023-02-14T03:35:00.158Z,40.13
2023-02-14T03:37:33.616Z,41.40
2023-02-14T03:40:08.569Z,42.47
2023-02-14T03:42:52.990Z,44.93
2023-02-14T03:45:48.521Z,43.60
2023-02-14T03:48:17.386Z,40.77
2023-02-14T03:50:47.842Z,42.37
2023-02-14T03:53:18.753Z,42.13
2023-02-14T03:56:02.228Z,40.07
2023-02-14T03:58:34.642Z,38.23
2023-02-14T04:01:08.516Z,39.43
2023-02-14T04:03:38.244Z,43.00
2023-02-14T04:06:05.215Z,39.23
2023-02-14T04:08:32.342Z,40.93
2023-02-14T04:11:01.898Z,38.47
2023-02-14T04:13:28.858Z,36.07
2023-02-14T04:15:55.553Z,38.80
2023-02-14T04:18:40.933Z,36.47
2023-02-14T04:21:08.218Z,37.70
2023-02-14T04:23:34.848Z,39.17
2023-02-14T04:26:03.629Z,39.27
2023-02-14T04:28:30.719Z,37.63
2023-02-14T04:31:01.782Z,40.47
2023-02-14T04:33:29.064Z,37.90
2023-02-14T04:35:55.670Z,39.57
2023-02-14T04:38:22.317Z,39.00
2023-02-14T04:40:50.013Z,39.43
2023-02-14T04:43:16.650Z,37.90
2023-02-14T04:45:43.317Z,34.90
2023-02-14T04:48:10.563Z,37.10
2023-02-14T04:50:37.533Z,37.77
2023-02-14T04:53:04.151Z,35.63
2023-02-14T04:55:30.800Z,37.43
2023-02-14T04:57:57.618Z,36.83
2023-02-14T05:00:24.412Z,38.57
2023-02-14T05:02:51.039Z,37.40
2023-02-14T05:05:17.820Z,35.63
2023-02-14T05:07:47.579Z,40.70
2023-02-14T05:10:14.817Z,36.47
2023-02-14T05:12:41.888Z,35.07
2023-02-14T05:15:09.159Z,37.20
2023-02-14T05:17:36.150Z,37.23
2023-02-14T05:20:05.772Z,40.47
2023-02-14T05:22:32.406Z,36.77
2023-02-14T05:24:59.070Z,35.10
2023-02-14T05:27:25.731Z,35.73
2023-02-14T05:29:52.408Z,36.67
2023-02-14T05:32:19.074Z,37.33
2023-02-14T05:34:45.704Z,37.97
2023-02-14T05:37:12.341Z,37.83
2023-02-14T05:39:38.936Z,38.53
2023-02-14T05:42:05.574Z,37.00
2023-02-14T05:44:32.215Z,38.93
2023-02-14T05:46:58.849Z,35.80
2023-02-14T05:49:25.510Z,38.10
2023-02-14T05:51:52.158Z,37.87
2023-02-14T05:54:18.810Z,39.63
2023-02-14T05:56:45.499Z,36.50
2023-02-14T05:59:14.098Z,37.20
2023-02-14T06:01:40.770Z,34.73
2023-02-14T06:04:07.593Z,39.20
2023-02-14T06:06:36.341Z,35.70
2023-02-14T06:09:03.432Z,39.00
2023-02-14T06:11:30.086Z,38.37
2023-02-14T06:13:56.861Z,39.13
2023-02-14T06:16:23.668Z,38.03
2023-02-14T06:18:50.314Z,36.13
2023-02-14T06:21:17.014Z,38.80
2023-02-14T06:23:43.651Z,37.37
2023-02-14T06:26:10.312Z,37.77
2023-02-14T06:28:36.907Z,36.23
2023-02-14T06:31:04.012Z,36.80
2023-02-14T06:33:30.872Z,34.77
2023-02-14T06:35:57.593Z,36.77
2023-02-14T06:38:24.222Z,38.17
2023-02-14T06:40:50.816Z,36.57
2023-02-14T06:43:17.469Z,36.17
2023-02-14T06:45:44.406Z,35.03
2023-02-14T06:48:11.246Z,38.13
2023-02-14T06:50:37.879Z,34.40
2023-02-14T06:53:04.576Z,35.57
2023-02-14T06:55:31.211Z,33.27
2023-02-14T06:57:57.860Z,38.23
2023-02-14T07:00:24.507Z,35.30
2023-02-14T07:02:51.232Z,34.83
2023-02-14T07:05:18.917Z,35.03
2023-02-14T07:07:46.145Z,33.93
2023-02-14T07:10:13.716Z,38.00
2023-02-14T07:12:40.783Z,35.33
2023-02-14T07:15:09.494Z,33.37
2023-02-14T07:17:36.178Z,37.13
2023-02-14T07:20:03.863Z,34.00
2023-02-14T07:22:30.582Z,34.20
2023-02-14T07:24:57.195Z,29.47
2023-02-14T07:27:24.247Z,30.70
2023-02-14T07:29:50.922Z,32.00
2023-02-14T07:32:17.738Z,32.33
2023-02-14T07:34:44.519Z,32.03
2023-02-14T07:37:11.249Z,37.53
2023-02-14T07:39:37.890Z,36.60
2023-02-14T07:42:04.592Z,34.80
2023-02-14T07:44:31.212Z,34.23
2023-02-14T07:46:57.941Z,32.03
2023-02-14T07:49:24.621Z,34.53
2023-02-14T07:51:51.291Z,34.60
2023-02-14T07:54:19.665Z,34.93
2023-02-14T07:56:47.147Z,30.10
2023-02-14T07:59:13.819Z,34.07
2023-02-14T08:01:40.636Z,35.67
2023-02-14T08:04:07.325Z,33.40
2023-02-14T08:06:34.173Z,33.40
2023-02-14T08:09:00.927Z,31.83
2023-02-14T08:11:46.213Z,30.50
2023-02-14T08:14:12.813Z,36.00
2023-02-14T08:16:39.739Z,34.20
2023-02-14T08:19:06.520Z,29.47
2023-02-14T08:21:33.201Z,28.13
2023-02-14T08:23:59.864Z,31.93
2023-02-14T08:26:26.512Z,28.00
2023-02-14T08:28:53.385Z,30.80
2023-02-14T08:31:35.684Z,32.97
2023-02-14T08:34:04.321Z,33.50
2023-02-14T08:36:31.015Z,31.07
2023-02-14T08:38:57.780Z,33.53
2023-02-14T08:41:24.808Z,30.17
2023-02-14T08:43:51.694Z,32.47
2023-02-14T08:46:18.387Z,28.73
2023-02-14T08:48:45.112Z,31.40
2023-02-14T08:51:16.390Z,33.53
2023-02-14T08:53:43.489Z,33.77
2023-02-14T08:56:12.319Z,28.47
2023-02-14T08:58:39.892Z,30.30
2023-02-14T09:01:15.412Z,29.40
2023-02-14T09:03:42.470Z,26.07
2023-02-14T09:06:11.859Z,29.20
2023-02-14T09:08:39.391Z,29.20
2023-02-14T09:11:15.578Z,30.03
2023-02-14T09:13:42.650Z,28.33
2023-02-14T09:16:14.146Z,31.40
2023-02-14T09:18:40.869Z,25.33
2023-02-14T09:21:16.958Z,26.73
2023-02-14T09:23:43.625Z,29.13
2023-02-14T09:26:12.260Z,29.93
2023-02-14T09:28:39.537Z,28.07
2023-02-14T09:31:32.320Z,30.27
2023-02-14T09:33:59.074Z,30.47
2023-02-14T09:36:25.730Z,30.53
2023-02-14T09:38:52.358Z,30.43
2023-02-14T09:41:39.277Z,31.67
2023-02-14T09:44:12.553Z,34.93
2023-02-14T09:46:49.153Z,29.77
2023-02-14T09:49:18.997Z,25.70
2023-02-14T09:51:50.063Z,26.10
2023-02-14T09:54:21.985Z,26.87
2023-02-14T09:57:00.778Z,23.63
2023-02-14T09:59:46.084Z,28.60
2023-02-14T10:02:44.202Z,26.03
2023-02-14T10:05:18.511Z,24.13
2023-02-14T10:08:12.824Z,25.73
2023-02-14T10:10:46.371Z,26.63
2023-02-14T10:13:44.713Z,28.40
2023-02-14T10:16:20.904Z,26.97
2023-02-14T10:19:02.218Z,29.00
2023-02-14T10:21:38.225Z,27.77
2023-02-14T10:24:29.185Z,29.30
2023-02-14T10:27:18.740Z,26.90
2023-02-14T10:29:45.355Z,30.67
2023-02-14T10:32:18.098Z,27.33
2023-02-14T10:34:50.377Z,29.07
2023-02-14T10:37:25.913Z,27.90
2023-02-14T10:40:17.312Z,32.30
2023-02-14T10:42:44.056Z,29.80
2023-02-14T10:45:44.161Z,27.47
2023-02-14T10:48:29.509Z,26.67
2023-02-14T10:51:17.197Z,24.77
2023-02-14T10:54:05.110Z,25.43
2023-02-14T10:56:46.588Z,25.20
2023-02-14T10:59:41.221Z,27.30
2023-02-14T11:02:15.123Z,28.07
2023-02-14T11:04:43.824Z,26.03
2023-02-14T11:07:18.735Z,27.63
2023-02-14T11:09:45.805Z,26.30
2023-02-14T11:12:12.740Z,25.63
2023-02-14T11:14:40.733Z,21.00
2023-02-14T11:17:31.572Z,28.77
2023-02-14T11:19:58.262Z,25.67
2023-02-14T11:22:33.368Z,23.77
2023-02-14T11:25:20.028Z,24.57
2023-02-14T11:27:50.106Z,27.27
2023-02-14T11:30:40.970Z,25.03
2023-02-14T11:33:31.831Z,23.10
2023-02-14T11:35:59.557Z,21.33
2023-02-14T11:38:36.581Z,23.37
2023-02-14T11:41:06.168Z,22.83
2023-02-14T11:43:36.995Z,22.27
2023-02-14T11:46:20.921Z,20.80
2023-02-14T11:48:59.712Z,23.80
2023-02-14T11:51:40.541Z,21.73
2023-02-14T11:54:34.398Z,20.23
2023-02-14T11:57:08.896Z,22.63
2023-02-14T11:59:48.178Z,20.20
2023-02-14T12:02:31.669Z,21.43
2023-02-14T12:05:18.726Z,20.40
2023-02-14T12:07:48.693Z,23.07
2023-02-14T12:10:18.045Z,23.17
2023-02-14T12:12:55.665Z,22.43
2023-02-14T12:15:25.261Z,19.50
2023-02-14T12:17:56.912Z,23.00
2023-02-14T12:20:35.618Z,20.63
2023-02-14T12:23:10.649Z,23.70
2023-02-14T12:25:51.745Z,22.37
2023-02-14T12:28:31.467Z,23.00
2023-02-14T12:30:58.567Z,21.87
2023-02-14T12:33:26.000Z,22.57
2023-02-14T12:36:15.718Z,18.57
2023-02-14T12:39:12.091Z,25.67
2023-02-14T12:42:11.664Z,24.67
2023-02-14T12:45:10.817Z,26.87
2023-02-14T12:47:55.540Z,24.03
2023-02-14T12:50:43.056Z,24.20
2023-02-14T12:53:41.637Z,24.53
2023-02-14T12:56:26.953Z,20.70
2023-02-14T12:59:30.974Z,26.13
2023-02-14T13:02:17.471Z,21.73
2023-02-14T13:04:56.164Z,24.03
2023-02-14T13:08:03.602Z,22.07
2023-02-14T13:10:38.831Z,22.57
2023-02-14T13:13:31.263Z,26.20
2023-02-14T13:16:15.308Z,22.80
2023-02-14T13:18:51.030Z,28.30
2023-02-14T13:21:24.168Z,23.70
2023-02-14T13:23:59.296Z,26.53
2023-02-14T13:26:31.765Z,24.73
2023-02-14T13:29:06.604Z,28.93
2023-02-14T13:31:34.118Z,24.53
2023-02-14T13:34:08.332Z,24.50
2023-02-14T13:36:36.758Z,25.37
2023-02-14T13:39:04.526Z,23.37
2023-02-14T13:41:31.764Z,25.33
2023-02-14T13:44:01.670Z,28.23
2023-02-14T13:46:34.515Z,38.13
2023-02-14T13:49:24.842Z,28.60
2023-02-14T13:52:02.681Z,26.73
2023-02-14T13:54:47.564Z,25.50
2023-02-14T13:57:34.815Z,21.93
2023-02-14T14:00:19.247Z,26.03
2023-02-14T14:02:47.361Z,22.00
2023-02-14T14:05:42.838Z,24.70
2023-02-14T14:08:22.333Z,23.70
2023-02-14T14:10:50.851Z,19.17
2023-02-14T14:13:42.329Z,21.90
2023-02-14T14:16:29.361Z,23.13
2023-02-14T14:19:04.695Z,22.53
2023-02-14T14:21:34.658Z,21.00
2023-02-14T14:24:25.239Z,20.53
2023-02-14T14:26:56.317Z,19.83
2023-02-14T14:29:38.243Z,19.80
2023-02-14T14:32:09.207Z,18.30
2023-02-14T14:34:35.888Z,21.33
2023-02-14T14:37:15.044Z,19.20
2023-02-14T14:39:41.736Z,19.03
2023-02-14T14:42:13.738Z,20.40
2023-02-14T14:44:47.832Z,20.43
2023-02-14T14:47:28.363Z,24.70
2023-02-14T14:50:00.112Z,19.77
2023-02-14T14:52:39.736Z,20.13
2023-02-14T14:55:09.194Z,21.23
2023-02-14T14:57:40.326Z,19.87
2023-02-14T15:00:36.329Z,19.10
2023-02-14T15:03:14.825Z,19.37
2023-02-14T15:05:47.374Z,17.53
2023-02-14T15:08:33.725Z,19.63
2023-02-14T15:11:11.033Z,19.73
2023-02-14T15:13:53.620Z,18.70
2023-02-14T15:16:28.350Z,19.17
2023-02-14T15:19:06.555Z,23.40
2023-02-14T15:21:33.579Z,20.33
2023-02-14T15:24:02.863Z,20.43
2023-02-14T15:26:32.631Z,21.00
2023-02-14T15:29:04.782Z,19.30
2023-02-14T15:31:36.086Z,18.33
2023-02-14T15:34:04.903Z,21.03
2023-02-14T15:36:33.725Z,18.57
2023-02-14T15:39:03.265Z,18.37
2023-02-14T15:41:29.929Z,18.57
2023-02-14T15:43:57.664Z,19.03
2023-02-14T15:46:24.678Z,23.10
2023-02-14T15:48:52.363Z,18.97
2023-02-14T15:51:25.787Z,20.10
2023-02-14T15:54:15.837Z,19.53
2023-02-14T15:56:49.126Z,19.03
2023-02-14T15:59:26.422Z,19.57
2023-02-14T16:02:31.556Z,18.90
2023-02-14T16:05:17.463Z,20.70
2023-02-14T16:08:07.745Z,21.43
2023-02-14T16:10:38.486Z,19.80
2023-02-14T16:13:14.783Z,21.00
2023-02-14T16:15:57.427Z,20.47
2023-02-14T16:18:45.869Z,20.00
2023-02-14T16:21:21.280Z,19.47
2023-02-14T16:24:08.001Z,22.37
2023-02-14T16:26:38.052Z,20.07
2023-02-14T16:29:09.484Z,19.97
2023-02-14T16:31:48.568Z,17.80
2023-02-14T16:34:23.987Z,20.77
2023-02-14T16:36:50.757Z,20.47
2023-02-14T16:39:20.536Z,22.17
2023-02-14T16:41:48.486Z,20.47
2023-02-14T16:44:17.894Z,22.07
2023-02-14T16:46:46.005Z,21.80
2023-02-14T16:49:13.788Z,20.27
2023-02-14T16:51:44.677Z,18.77
2023-02-14T16:54:19.541Z,22.50
2023-02-14T16:57:08.159Z,19.60
2023-02-14T16:59:34.884Z,23.07
2023-02-14T17:02:02.179Z,24.37
2023-02-14T17:04:28.833Z,19.93
2023-02-14T17:06:57.447Z,24.23
2023-02-14T17:09:29.622Z,22.03
2023-02-14T17:12:00.739Z,21.03
2023-02-14T17:14:32.141Z,24.10
2023-02-14T17:16:59.678Z,23.83
2023-02-14T17:19:26.855Z,22.63
2023-02-14T17:21:56.340Z,22.20
2023-02-14T17:24:23.101Z,19.60
2023-02-14T17:26:49.859Z,21.10
2023-02-14T17:29:16.772Z,20.97
2023-02-14T17:31:44.098Z,24.20
2023-02-14T17:34:10.944Z,21.23
2023-02-14T17:36:38.191Z,21.27
2023-02-14T17:39:07.538Z,22.77
2023-02-14T17:41:34.369Z,21.73
2023-02-14T17:44:05.640Z,24.77
2023-02-14T17:46:33.384Z,22.10
2023-02-14T17:49:02.510Z,23.13
2023-02-14T17:51:29.675Z,24.90
2023-02-14T17:53:58.978Z,25.60
2023-02-14T17:56:26.684Z,24.00
2023-02-14T17:58:55.098Z,28.83
2023-02-14T18:01:26.999Z,29.67
2023-02-14T18:03:54.631Z,28.97
2023-02-14T18:06:21.397Z,24.77
2023-02-14T18:08:50.821Z,25.60
2023-02-14T18:11:19.810Z,26.67
2023-02-14T18:13:46.974Z,25.33
2023-02-14T18:16:16.137Z,26.57
2023-02-14T18:18:42.845Z,25.07
2023-02-14T18:21:11.136Z,26.17
2023-02-14T18:23:38.465Z,26.93
2023-02-14T18:26:08.285Z,22.50
2023-02-14T18:28:36.052Z,29.97
2023-02-14T18:31:08.338Z,22.60
2023-02-14T18:33:35.521Z,21.93
2023-02-14T18:36:04.280Z,27.17
2023-02-14T18:38:34.415Z,25.67
2023-02-14T18:41:10.219Z,24.77
2023-02-14T18:43:37.253Z,26.07
2023-02-14T18:46:06.037Z,23.03
2023-02-14T18:48:33.630Z,24.60
2023-02-14T18:51:07.271Z,25.23
2023-02-14T18:53:34.932Z,24.77
2023-02-14T18:56:13.325Z,28.93
2023-02-14T18:58:41.495Z,27.77
2023-02-14T19:01:12.936Z,28.13
2023-02-14T19:03:40.367Z,32.67
2023-02-14T19:06:08.293Z,28.33
2023-02-14T19:08:37.603Z,32.47
2023-02-14T19:11:09.081Z,31.13
2023-02-14T19:13:35.863Z,34.13
2023-02-14T19:16:10.459Z,33.93
2023-02-14T19:18:37.125Z,36.00
2023-02-14T19:21:11.517Z,32.10
2023-02-14T19:23:38.480Z,34.47
2023-02-14T19:26:13.848Z,40.53
2023-02-14T19:28:41.459Z,34.37
2023-02-14T19:31:08.668Z,32.43
2023-02-14T19:33:42.823Z,35.53
2023-02-14T19:36:12.774Z,35.77
2023-02-14T19:38:59.467Z,35.43
2023-02-14T19:41:30.147Z,33.97
2023-02-14T19:43:58.683Z,30.53
2023-02-14T19:46:26.309Z,36.30
2023-02-14T19:48:53.290Z,34.67
2023-02-14T19:51:27.783Z,30.87
2023-02-14T19:53:55.911Z,35.90
2023-02-14T19:56:25.789Z,32.33
2023-02-14T19:58:52.844Z,34.30
2023-02-14T20:01:25.695Z,32.97
2023-02-14T20:03:53.725Z,30.17
2023-02-14T20:06:21.822Z,29.23
2023-02-14T20:08:51.450Z,28.63
2023-02-14T20:11:35.536Z,29.57
2023-02-14T20:14:03.808Z,30.57
2023-02-14T20:16:33.027Z,28.83
2023-02-14T20:19:02.706Z,28.17
2023-02-14T20:21:29.502Z,29.23
2023-02-14T20:24:01.191Z,27.97
2023-02-14T20:26:29.576Z,30.53
2023-02-14T20:29:03.784Z,28.87
2023-02-14T20:31:32.029Z,28.63
2023-02-14T20:33:59.087Z,26.20
2023-02-14T20:36:26.336Z,29.03
2023-02-14T20:38:57.501Z,34.80
2023-02-14T20:41:30.565Z,30.23
2023-02-14T20:44:05.295Z,29.03
2023-02-14T20:46:33.088Z,29.03
2023-02-14T20:49:00.001Z,28.43
2023-02-14T20:51:27.018Z,26.97
2023-02-14T20:53:56.467Z,29.63
2023-02-14T20:56:24.268Z,31.47
2023-02-14T20:58:50.989Z,30.73
2023-02-14T21:01:23.379Z,31.90
2023-02-14T21:03:52.250Z,31.87
2023-02-14T21:06:30.483Z,29.77
2023-02-14T21:08:57.244Z,28.17
2023-02-14T21:11:25.027Z,30.23
2023-02-14T21:14:02.012Z,31.33
2023-02-14T21:16:30.278Z,28.53
2023-02-14T21:19:01.573Z,32.07
2023-02-14T21:21:34.667Z,29.80
2023-02-14T21:24:12.612Z,26.07
2023-02-14T21:26:39.502Z,30.87
2023-02-14T21:29:06.613Z,27.43
2023-02-14T21:31:34.445Z,29.87
2023-02-14T21:34:05.346Z,27.97
2023-02-14T21:36:35.629Z,27.10
2023-02-14T21:39:04.221Z,25.87
2023-02-14T21:41:31.511Z,26.80
2023-02-14T21:44:00.572Z,22.73
2023-02-14T21:46:33.396Z,27.30
2023-02-14T21:49:20.326Z,26.20
2023-02-14T21:51:50.336Z,24.90
2023-02-14T21:54:17.621Z,23.40
2023-02-14T21:56:45.150Z,23.43
2023-02-14T21:59:12.588Z,22.63
2023-02-14T22:01:45.414Z,22.40
2023-02-14T22:04:13.350Z,22.07
2023-02-14T22:06:41.718Z,22.33
2023-02-14T22:09:09.013Z,22.37
2023-02-14T22:11:35.797Z,23.07
2023-02-14T22:14:02.829Z,22.97
2023-02-14T22:16:29.995Z,21.80
2023-02-14T22:18:56.864Z,20.90
2023-02-14T22:21:27.200Z,22.90
2023-02-14T22:23:55.106Z,20.93
2023-02-14T22:26:31.037Z,21.03
2023-02-14T22:29:00.367Z,21.73
2023-02-14T22:31:30.527Z,20.40
2023-02-14T22:33:57.242Z,24.70
2023-02-14T22:36:24.458Z,20.10
2023-02-14T22:38:51.195Z,22.43
2023-02-14T22:41:20.676Z,20.80
2023-02-14T22:43:47.938Z,22.37
2023-02-14T22:46:23.323Z,21.47
2023-02-14T22:48:50.913Z,22.07
2023-02-14T22:51:23.778Z,22.63
2023-02-14T22:53:53.458Z,20.83
2023-02-14T22:56:26.243Z,20.07
2023-02-14T22:58:54.588Z,23.53
2023-02-14T23:01:22.603Z,22.90
2023-02-14T23:03:57.562Z,20.93
2023-02-14T23:06:33.347Z,19.57
2023-02-14T23:09:00.847Z,19.20
2023-02-14T23:11:36.281Z,19.87
2023-02-14T23:14:21.958Z,20.07
2023-02-14T23:17:07.827Z,20.33
2023-02-14T23:19:54.959Z,20.73
2023-02-14T23:22:28.842Z,19.40
2023-02-14T23:24:58.131Z,21.07
2023-02-14T23:27:32.002Z,20.77
2023-02-14T23:29:58.852Z,19.23
2023-02-14T23:32:25.567Z,19.80
2023-02-14T23:34:52.273Z,21.83
2023-02-14T23:37:19.833Z,21.27
2023-02-14T23:39:46.606Z,19.97
2023-02-14T23:42:14.573Z,19.60
2023-02-14T23:44:43.770Z,18.57
2023-02-14T23:47:11.187Z,19.37
2023-02-14T23:49:39.937Z,18.93
2023-02-14T23:52:11.705Z,18.93
2023-02-14T23:54:38.925Z,23.70
2023-02-14T23:57:07.274Z,18.57
2023-02-14T23:59:34.420Z,17.60
